Latest Weather Observations for Tamworth Airport

IDN60801

Issued at 7:35 pm EST Friday 29 August 2014 (issued every 30 minutes, with the page automatically refreshed every 10 minutes)

About weather observations | Map of weather stations | Latest weather observations for NSW | Other Formats
Station Details ID: 055325 Name: TAMWORTH AIRPORT AWS Lat: -31.07 Lon: 150.84 Height: 394.9 m
Data from the previous 72 hours. | See also: Recent months at Tamworth Airport
Date/Time
EST
Temp
°C
App
Temp
°C
Dew
Point
Rel
Hum
%
Delta-T
°C
Wind Press
QNH
hPa
Press
MSL
hPa
Rain
since 9 am
mm
Dir
 
Spd
km/h
Gust
km/h
Spd
kts
Gust
kts
29/07:30pm 9.1 5.4 4.5 73 2.1 SSE 13 15 7 8 1023.8 - 0.0
29/07:00pm 9.8 6.4 4.2 68 2.5 SSE 11 13 6 7 1023.6 1023.8 0.0
29/06:30pm 10.4 7.0 3.9 64 2.9 SSE 11 13 6 7 1023.2 - 0.0
29/06:00pm 11.1 7.7 3.9 61 3.3 S 11 13 6 7 1022.9 1023.1 0.0
29/05:30pm 13.1 8.2 4.0 54 4.2 S 19 26 10 14 1022.7 - 0.0
29/05:00pm 14.1 9.3 4.4 52 4.5 S 19 26 10 14 1022.6 1022.8 0.0
29/04:30pm 15.5 10.0 4.2 47 5.4 S 22 30 12 16 1022.4 - 0.0
29/04:00pm 16.0 10.6 4.4 46 5.5 S 22 28 12 15 1022.4 1022.6 0.0
29/03:30pm 16.7 10.3 3.0 40 6.4 S 26 39 14 21 1022.5 - 0.0
29/03:00pm 16.7 11.7 4.7 45 5.8 SSE 20 30 11 16 1022.7 1022.9 0.0
29/02:30pm 16.0 11.6 2.8 41 6.1 S 15 24 8 13 1022.8 - 0.0
29/02:00pm 15.7 10.7 3.5 44 5.7 S 19 26 10 14 1023.2 1023.4 0.0
29/01:30pm 16.9 12.1 4.6 44 5.9 S 19 28 10 15 1023.5 - 0.0
29/01:00pm 16.1 11.0 3.9 44 5.7 S 20 30 11 16 1023.8 1024.0 0.0
29/12:30pm 15.7 10.5 3.8 45 5.6 S 20 28 11 15 1024.2 - 0.0
29/12:00pm 15.6 10.0 3.7 45 5.6 S 22 33 12 18 1024.7 1024.9 0.0
29/11:30am 14.1 8.2 3.8 50 4.8 SE 24 28 13 15 1025.1 - 0.0
29/11:00am 13.7 9.2 4.0 52 4.5 S 17 24 9 13 1025.4 1025.6 0.0
29/10:30am 12.9 8.8 4.1 55 4.1 S 15 20 8 11 1025.8 - 0.0
29/10:00am 13.1 9.1 5.0 58 3.8 S 15 28 8 15 1026.2 1026.4 0.0
29/09:30am 12.7 10.5 6.3 65 3.1 E 7 15 4 8 1026.3 - 0.0
29/09:00am 9.9 8.4 5.1 72 2.2 W 2 7 1 4 1026.5 1026.7 0.0
29/08:30am 9.0 7.1 5.0 76 1.8 E 4 7 2 4 1026.4 - 0.0
29/08:00am 7.0 5.7 4.0 81 1.3 CALM 0 4 0 2 1026.4 1026.6 0.0
29/07:30am 5.8 2.6 3.3 84 1.1 ESE 9 13 5 7 1026.2 - 0.0
29/07:00am 3.7 0.9 2.2 90 0.6 ENE 6 7 3 4 1025.8 1026.1 0.0
29/06:30am 3.4 1.3 1.9 90 0.6 E 2 9 1 5 1025.5 - 0.0
29/06:00am 3.2 0.1 1.3 87 0.7 ENE 7 9 4 5 1025.4 1025.6 0.0
29/05:30am 3.2 -0.7 1.1 86 0.8 SSE 11 13 6 7 1025.1 - 0.0
29/05:00am 4.1 1.3 2.1 87 0.8 ESE 6 7 3 4 1024.8 1025.0 0.0
29/04:30am 4.3 2.7 2.3 87 0.8 CALM 0 2 0 1 1024.9 - 0.0
29/04:00am 4.2 2.1 1.9 85 0.9 SSE 2 7 1 4 1024.9 1025.1 0.0
29/03:30am 4.1 1.6 1.5 83 1.0 SE 4 6 2 3 1025.0 - 0.0
29/03:00am 5.8 3.2 3.1 83 1.1 SE 6 9 3 5 1025.0 1025.2 0.0
29/02:30am 5.3 3.0 2.5 82 1.2 NNE 4 7 2 4 1024.9 - 0.0
29/02:00am 6.4 3.9 3.6 82 1.2 ESE 6 11 3 6 1025.1 1025.3 0.0
29/01:30am 6.0 3.3 3.5 84 1.1 SE 7 9 4 5 1025.1 - 0.0
29/01:00am 6.3 3.6 2.8 78 1.5 E 6 11 3 6 1025.4 1025.6 0.0
29/12:30am 7.4 4.1 4.7 83 1.2 S 11 15 6 8 1025.5 - 0.0
29/12:00am 6.5 3.3 2.8 77 1.6 SSE 9 13 5 7 1025.6 1025.8 0.0
 
Date/Time
EST
Temp
°C
App
Temp
°C
Dew
Point
Rel
Hum
%
Delta-T
°C
Wind Press
QNH
hPa
Press
MSL
hPa
Rain
since 9 am
mm
Dir
 
Spd
km/h
Gust
km/h
Spd
kts
Gust
kts
28/11:30pm 7.7 3.5 3.6 75 1.8 SSE 15 19 8 10 1025.7 - 0.0
28/11:00pm 7.6 4.1 3.3 74 1.9 SE 11 17 6 9 1025.5 1025.7 0.0
28/10:30pm 9.2 4.7 4.4 72 2.2 S 17 20 9 11 1025.7 - 0.0
28/10:00pm 8.9 7.3 4.5 74 2.0 SSE 2 9 1 5 1025.7 1026.0 0.0
28/09:30pm 8.8 4.7 4.6 75 1.9 SSE 15 19 8 10 1025.7 - 0.0
28/09:00pm 10.2 5.4 5.6 73 2.1 S 20 24 11 13 1025.5 1025.7 0.0
28/08:30pm 10.5 6.7 5.9 73 2.2 S 15 19 8 10 1025.4 - 0.0
28/08:00pm 10.7 6.5 5.7 71 2.3 S 17 22 9 12 1025.2 1025.4 0.0
28/07:30pm 11.2 7.0 5.7 69 2.6 SSE 17 20 9 11 1025.0 - 0.0
28/07:00pm 11.8 7.6 5.7 66 2.9 S 17 20 9 11 1024.7 1024.9 0.0
28/06:30pm 13.4 7.8 5.6 59 3.7 SSE 24 32 13 17 1024.4 - 0.0
28/06:00pm 13.9 9.3 6.5 61 3.6 S 20 24 11 13 1024.2 1024.4 0.0
28/05:30pm 14.9 8.5 5.4 53 4.6 S 28 35 15 19 1023.7 - 0.0
28/05:00pm 16.1 11.6 7.1 55 4.5 S 20 24 11 13 1023.1 1023.3 0.0
28/04:30pm 17.3 12.9 6.5 49 5.4 SSE 19 26 10 14 1022.7 - 0.0
28/04:00pm 17.5 12.2 5.1 44 6.1 SE 22 32 12 17 1022.4 1022.6 0.0
28/03:30pm 17.1 11.9 5.4 46 5.8 SE 22 30 12 16 1022.4 - 0.0
28/03:00pm 16.6 10.3 5.6 48 5.4 S 28 35 15 19 1022.5 1022.7 0.0
28/02:30pm 17.9 12.0 4.1 40 6.6 SE 24 32 13 17 1022.2 - 0.0
28/02:00pm 17.7 10.2 3.2 38 6.8 SE 32 41 17 22 1022.0 1022.2 0.0
28/01:30pm 18.4 13.1 4.9 41 6.6 SE 22 35 12 19 1022.3 - 0.0
28/01:00pm 17.6 10.4 5.2 44 6.1 SSE 32 39 17 21 1022.3 1022.5 0.0
28/12:30pm 17.7 11.5 7.7 52 5.2 SE 30 39 16 21 1022.5 - 0.0
28/12:00pm 16.6 11.2 8.1 57 4.4 S 26 35 14 19 1023.1 1023.3 0.0
28/11:30am 17.1 12.0 7.5 53 4.9 S 24 32 13 17 1023.1 - 0.0
28/11:00am 16.9 11.0 7.5 54 4.8 S 28 37 15 20 1023.2 1023.4 0.0
28/10:30am 16.7 11.8 8.4 58 4.3 S 24 30 13 16 1023.3 - 0.0
28/10:00am 16.2 11.2 7.9 58 4.2 S 24 32 13 17 1023.2 1023.4 0.0
28/09:30am 15.8 10.7 7.6 58 4.2 S 24 32 13 17 1023.2 - 0.0
28/09:00am 14.7 9.7 8.0 64 3.4 S 24 30 13 16 1023.2 1023.4 0.0
28/08:30am 13.9 8.9 7.9 67 3.0 S 24 32 13 17 1022.8 - 0.0
28/08:00am 12.5 7.0 7.4 71 2.5 S 26 33 14 18 1022.6 1022.8 0.0
28/07:30am 11.0 6.2 7.3 78 1.8 S 22 26 12 14 1022.4 - 0.0
28/07:00am 10.1 5.1 6.4 78 1.8 S 22 28 12 15 1022.0 1022.2 0.0
28/06:30am 9.9 5.3 6.4 79 1.7 S 20 24 11 13 1021.7 - 0.0
28/06:00am 9.8 5.7 6.3 79 1.7 S 17 20 9 11 1021.4 1021.5 0.0
28/05:30am 10.3 5.9 6.6 78 1.8 S 19 24 10 13 1021.1 - 0.0
28/05:00am 10.5 6.0 7.0 79 1.7 S 20 28 11 15 1021.0 1021.1 0.0
28/04:30am 10.1 5.2 6.8 80 1.6 S 22 28 12 15 1020.9 - 0.0
28/04:00am 9.4 6.1 6.5 82 1.4 SSE 13 19 7 10 1020.9 1021.0 0.0
28/03:30am 9.6 5.5 6.1 79 1.7 S 17 20 9 11 1020.9 - 0.0
28/03:00am 10.0 5.9 6.3 78 1.8 S 17 24 9 13 1020.8 1020.9 0.0
28/02:30am 10.4 5.8 6.4 76 1.9 S 20 28 11 15 1020.8 - 0.0
28/02:00am 10.7 6.2 6.3 74 2.1 S 19 26 10 14 1021.0 1021.1 0.0
28/01:30am 11.0 6.7 6.8 75 2.0 S 19 24 10 13 1021.3 - 0.0
28/01:00am 10.7 6.1 6.3 74 2.1 S 20 26 11 14 1021.3 1021.4 0.0
28/12:30am 10.9 6.3 6.5 74 2.1 S 20 32 11 17 1021.6 - 0.0
28/12:00am 11.2 6.3 6.9 75 2.1 S 22 28 12 15 1021.5 1021.7 0.0
 
Date/Time
EST
Temp
°C
App
Temp
°C
Dew
Point
Rel
Hum
%
Delta-T
°C
Wind Press
QNH
hPa
Press
MSL
hPa
Rain
since 9 am
mm
Dir
 
Spd
km/h
Gust
km/h
Spd
kts
Gust
kts
27/11:30pm 11.4 6.6 7.3 76 2.0 S 22 30 12 16 1021.6 - 0.0
27/11:00pm 11.5 7.3 7.6 77 1.9 S 19 26 10 14 1021.9 1022.1 0.0
27/10:30pm 10.8 7.3 7.1 78 1.8 S 15 19 8 10 1021.7 - 0.0
27/10:00pm 11.6 7.4 7.5 76 2.0 S 19 24 10 13 1021.6 1021.8 0.0
27/09:30pm 11.2 7.1 7.7 79 1.7 SSW 19 22 10 12 1021.8 - 0.0
27/09:00pm 11.4 7.6 7.5 77 1.9 S 17 22 9 12 1021.7 1021.9 0.0
27/08:30pm 11.7 7.5 7.4 75 2.1 S 19 24 10 13 1021.6 - 0.0
27/08:00pm 11.8 7.6 7.3 74 2.2 S 19 22 10 12 1021.7 1021.9 0.0
27/07:30pm 11.7 7.8 7.0 73 2.3 S 17 20 9 11 1021.6 - 0.0
27/07:00pm 12.3 8.5 7.4 72 2.4 S 17 22 9 12 1021.3 1021.4 0.0
27/06:30pm 12.8 8.8 6.8 67 2.9 SSE 17 24 9 13 1021.0 - 0.0
27/06:00pm 14.4 9.8 6.7 60 3.8 SSE 20 26 11 14 1020.4 1020.6 0.0
27/05:30pm 14.7 9.6 6.0 56 4.3 SE 22 28 12 15 1019.8 - 0.0
27/05:00pm 15.0 10.1 5.2 52 4.7 SE 20 28 11 15 1019.6 1019.8 0.0
27/04:30pm 15.8 11.2 6.3 53 4.7 SSE 20 28 11 15 1019.5 - 0.0
27/04:00pm 15.6 10.7 7.1 57 4.3 SSE 22 30 12 16 1019.4 1019.6 0.0
27/03:30pm 15.6 8.7 6.6 55 4.5 SSE 32 44 17 24 1019.1 - 0.0
27/03:00pm 15.9 9.7 7.9 59 4.1 SSE 30 41 16 22 1019.2 1019.3 0.0
27/02:30pm 15.2 9.4 8.0 62 3.7 SSE 28 37 15 20 1019.4 - 0.0
27/02:00pm 15.0 10.7 9.4 69 2.9 S 22 28 12 15 1019.7 1019.9 0.0
27/01:30pm 15.2 13.2 10.0 71 2.8 ESE 11 17 6 9 1019.9 - 0.0
27/01:00pm 14.3 13.0 9.9 75 2.3 SE 7 13 4 7 1020.0 1020.2 0.0
27/12:30pm 13.4 12.1 10.0 80 1.8 S 7 11 4 6 1020.4 - 0.0
27/12:00pm 12.8 10.6 9.3 79 1.8 SSW 11 17 6 9 1020.9 1021.0 0.0
27/11:30am 12.6 11.3 9.1 79 1.8 SSE 6 9 3 5 1021.2 - 0.0
27/11:00am 12.2 10.8 9.4 83 1.4 SSW 7 9 4 5 1021.4 1021.5 0.0
27/10:30am 11.8 10.1 9.9 88 1.0 SW 9 13 5 7 1021.5 - 0.0
27/10:00am 11.2 8.9 9.1 87 1.1 S 11 13 6 7 1021.7 1021.9 0.0
27/09:30am 10.9 9.0 9.0 88 1.0 SSW 9 11 5 6 1021.5 - 0.0
27/09:00am 10.4 9.0 8.8 90 0.8 SW 6 7 3 4 1021.4 1021.5 15.8
27/08:30am 10.0 9.3 8.4 90 0.8 SSE 2 9 1 5 1021.5 - 15.6
27/08:00am 9.8 8.2 8.2 90 0.8 SSE 6 6 3 3 1021.1 1021.2 15.2
27/07:33am 9.7 7.2 8.1 90 0.8 SSE 11 13 6 7 1021.1 - 14.4
27/07:30am 9.7 7.2 8.1 90 0.8 SSE 11 13 6 7 1021.0 - 14.4
27/07:16am 9.7 6.8 8.0 89 0.8 S 13 17 7 9 1020.8 - 13.8
27/07:00am 9.9 7.0 8.2 89 0.8 S 13 15 7 8 1020.5 1020.7 12.8
27/06:30am 9.8 6.9 8.1 89 0.8 SSW 13 17 7 9 1020.0 - 12.2
27/06:00am 10.1 6.9 8.4 89 0.8 S 15 19 8 10 1019.7 1019.9 11.2
27/05:30am 10.2 6.1 8.5 89 0.8 S 20 26 11 14 1019.6 - 10.4
27/05:00am 10.3 7.5 8.7 90 0.8 S 13 15 7 8 1019.4 1019.6 9.2
27/04:30am 10.6 8.7 9.0 90 0.8 S 9 11 5 6 1019.3 - 8.2
27/04:09am 10.5 9.9 8.9 90 0.8 SE 2 7 1 4 1019.2 - 8.0
27/04:00am 10.7 10.5 9.1 90 0.8 CALM 0 0 0 0 1019.2 1019.3 7.8
27/03:30am 10.8 10.6 9.2 90 0.8 CALM 0 0 0 0 1019.0 - 7.6
27/03:00am 10.8 9.3 9.2 90 0.8 ENE 7 11 4 6 1019.3 1019.5 7.2
27/02:43am 10.9 10.0 9.3 90 0.8 ENE 4 9 2 5 1019.4 - 6.2
27/02:42am 10.9 10.4 9.3 90 0.8 ENE 2 9 1 5 1019.4 - 6.2
27/02:30am 10.8 10.6 9.1 89 0.9 CALM 0 0 0 0 1019.4 - 6.2
27/02:01am 10.8 10.6 9.1 89 0.9 CALM 0 0 0 0 1019.7 - 6.0
27/02:00am 10.8 10.6 9.1 89 0.9 CALM 0 0 0 0 1019.6 1019.8 6.0
27/01:30am 10.9 10.7 9.0 88 1.0 CALM 0 0 0 0 1019.8 - 6.0
27/01:00am 10.9 10.7 9.0 88 1.0 CALM 0 0 0 0 1020.1 1020.3 6.0
27/12:30am 10.9 9.5 9.0 88 1.0 NNE 6 9 3 5 1020.2 - 6.0
27/12:00am 11.0 10.7 8.8 86 1.1 CALM 0 0 0 0 1020.4 1020.6 6.0
 
Date/Time
EST
Temp
°C
App
Temp
°C
Dew
Point
Rel
Hum
%
Delta-T
°C
Wind Press
QNH
hPa
Press
MSL
hPa
Rain
since 9 am
mm
Dir
 
Spd
km/h
Gust
km/h
Spd
kts
Gust
kts
26/11:30pm 10.9 10.6 8.5 85 1.2 CALM 0 0 0 0 1020.4 - 6.0
26/11:00pm 11.3 9.4 8.9 85 1.2 ENE 9 11 5 6 1020.6 1020.8 6.0
26/10:30pm 11.3 8.4 8.2 81 1.6 S 13 15 7 8 1020.6 - 6.0
26/10:00pm 11.6 8.9 9.0 84 1.3 S 13 15 7 8 1020.8 1020.9 6.0
26/09:30pm 11.5 9.6 8.9 84 1.3 S 9 9 5 5 1020.6 - 6.0
26/09:00pm 11.6 10.7 9.3 86 1.2 SSW 4 6 2 3 1020.6 1020.8 6.0
26/08:30pm 11.6 9.4 9.5 87 1.1 SSW 11 13 6 7 1020.3 - 6.0
26/08:00pm 11.5 9.6 9.2 86 1.2 SW 9 11 5 6 1020.3 1020.5 5.8

Other Formats:

Comma delimited format used in spreadsheet applications
http://www.bom.gov.au/fwo/IDN60801/IDN60801.95762.axf

JavaScript Object Notation format (JSON) in row-major order
http://www.bom.gov.au/fwo/IDN60801/IDN60801.95762.json